createdAt,value
2022-09-28T00:01:54.334Z,8.44
2022-09-28T00:03:56.549Z,8.27
2022-09-28T00:06:01.784Z,8.39
2022-09-28T00:08:03.212Z,8.54
2022-09-28T00:10:04.815Z,8.35
2022-09-28T00:12:06.306Z,8.28
2022-09-28T00:14:09.626Z,8.23
2022-09-28T00:16:14.246Z,8.28
2022-09-28T00:18:15.748Z,8.39
2022-09-28T00:20:17.046Z,8.24
2022-09-28T00:22:18.491Z,8.31
2022-09-28T00:24:22.970Z,8.36
2022-09-28T00:26:27.279Z,8.49
2022-09-28T00:28:28.813Z,8.68
2022-09-28T00:30:31.610Z,8.61
2022-09-28T00:32:33.085Z,8.54
2022-09-28T00:34:35.821Z,8.45
2022-09-28T00:36:37.284Z,8.36
2022-09-28T00:38:38.598Z,8.37
2022-09-28T00:40:40.138Z,8.29
2022-09-28T00:42:41.736Z,8.19
2022-09-28T00:44:49.921Z,8.24
2022-09-28T00:46:57.238Z,8.39
2022-09-28T00:49:03.104Z,8.40
2022-09-28T00:51:08.831Z,8.68
2022-09-28T00:53:15.987Z,8.68
2022-09-28T00:55:20.469Z,8.80
2022-09-28T00:57:22.914Z,8.66
2022-09-28T00:59:24.412Z,8.65
2022-09-28T01:01:26.315Z,8.78
2022-09-28T01:03:29.733Z,8.63
2022-09-28T01:05:33.046Z,8.75
2022-09-28T01:07:35.451Z,8.74
2022-09-28T01:09:38.660Z,8.68
2022-09-28T01:11:42.101Z,8.52
2022-09-28T01:13:44.493Z,8.41
2022-09-28T01:15:52.300Z,8.45
2022-09-28T01:18:00.849Z,8.51
2022-09-28T01:20:24.377Z,8.43
2022-09-28T01:22:36.143Z,8.54
2022-09-28T01:24:42.767Z,8.51
2022-09-28T01:26:57.873Z,8.50
2022-09-28T01:29:04.753Z,8.63
2022-09-28T01:31:10.844Z,8.73
2022-09-28T01:33:19.950Z,8.73
2022-09-28T01:35:26.900Z,8.83
2022-09-28T01:37:35.425Z,8.79
2022-09-28T01:39:42.229Z,8.74
2022-09-28T01:41:48.699Z,8.66
2022-09-28T01:43:54.950Z,8.61
2022-09-28T01:46:00.740Z,8.49
2022-09-28T01:48:06.183Z,8.54
2022-09-28T01:50:11.923Z,8.46
2022-09-28T01:52:18.869Z,8.31
2022-09-28T01:54:26.840Z,8.18
2022-09-28T01:56:33.928Z,8.19
2022-09-28T01:58:38.463Z,8.19
2022-09-28T02:00:45.182Z,8.22
2022-09-28T02:02:50.596Z,8.11
2022-09-28T02:04:58.369Z,8.16
2022-09-28T02:07:05.041Z,8.09
2022-09-28T02:09:11.496Z,8.03
2022-09-28T02:11:14.960Z,7.95
2022-09-28T02:13:19.483Z,7.96
2022-09-28T02:15:30.121Z,7.81
2022-09-28T02:17:32.928Z,7.86
2022-09-28T02:19:35.642Z,7.78
2022-09-28T02:21:42.372Z,7.79
2022-09-28T02:23:51.193Z,7.87
2022-09-28T02:26:00.790Z,7.83
2022-09-28T02:28:04.955Z,7.97
2022-09-28T02:30:08.146Z,8.02
2022-09-28T02:32:10.928Z,8.02
2022-09-28T02:34:13.719Z,7.99
2022-09-28T02:36:15.455Z,8.06
2022-09-28T02:38:17.329Z,8.06
2022-09-28T02:40:21.530Z,8.16
2022-09-28T02:42:27.428Z,8.26
2022-09-28T02:44:49.398Z,8.28
2022-09-28T02:46:58.131Z,8.31
2022-09-28T02:49:22.091Z,8.30
2022-09-28T02:51:32.267Z,8.31
2022-09-28T02:54:14.413Z,8.31
2022-09-28T02:56:42.809Z,8.09
2022-09-28T02:58:50.825Z,8.15
2022-09-28T03:01:01.220Z,8.02
2022-09-28T03:03:11.863Z,8.28
2022-09-28T03:05:18.128Z,8.13
2022-09-28T03:07:26.060Z,8.17
2022-09-28T03:09:35.151Z,8.33
2022-09-28T03:11:40.686Z,8.40
2022-09-28T03:13:42.493Z,8.37
2022-09-28T03:15:48.401Z,8.26
2022-09-28T03:17:50.489Z,8.25
2022-09-28T03:19:51.920Z,8.23
2022-09-28T03:21:53.388Z,8.01
2022-09-28T03:23:56.010Z,8.09
2022-09-28T03:25:57.577Z,7.94
2022-09-28T03:27:58.875Z,7.94
2022-09-28T03:30:00.658Z,7.99
2022-09-28T03:32:02.209Z,7.95
2022-09-28T03:34:03.636Z,7.84
2022-09-28T03:36:05.344Z,7.95
2022-09-28T03:38:06.782Z,7.93
2022-09-28T03:40:10.282Z,7.90
2022-09-28T03:42:11.760Z,7.94
2022-09-28T03:44:13.049Z,7.85
2022-09-28T03:46:14.609Z,7.73
2022-09-28T03:48:17.820Z,7.75
2022-09-28T03:50:22.107Z,7.68
2022-09-28T03:52:23.400Z,7.66
2022-09-28T03:54:24.853Z,7.58
2022-09-28T03:56:27.480Z,7.58
2022-09-28T03:58:29.083Z,7.47
2022-09-28T04:00:30.513Z,7.44
2022-09-28T04:02:33.378Z,7.38
2022-09-28T04:04:35.019Z,7.32
2022-09-28T04:06:36.460Z,7.44
2022-09-28T04:08:37.891Z,7.50
2022-09-28T04:10:39.201Z,7.39
2022-09-28T04:12:41.998Z,7.35
2022-09-28T04:14:43.421Z,7.29
2022-09-28T04:16:44.940Z,7.38
2022-09-28T04:18:46.248Z,7.43
2022-09-28T04:20:47.690Z,7.49
2022-09-28T04:22:49.388Z,7.46
2022-09-28T04:24:50.810Z,7.41
2022-09-28T04:26:52.327Z,7.52
2022-09-28T04:28:54.965Z,7.56
2022-09-28T04:30:56.463Z,7.63
2022-09-28T04:32:57.748Z,7.59
2022-09-28T04:34:59.242Z,7.65
2022-09-28T04:37:00.780Z,7.64
2022-09-28T04:39:02.268Z,7.77
2022-09-28T04:41:03.672Z,7.81
2022-09-28T04:43:05.188Z,7.82
2022-09-28T04:45:09.022Z,7.82
2022-09-28T04:47:10.499Z,7.86
2022-09-28T04:49:11.883Z,7.88
2022-09-28T04:51:13.361Z,7.95
2022-09-28T04:53:14.660Z,8.00
2022-09-28T04:55:16.292Z,8.13
2022-09-28T04:57:17.733Z,8.21
2022-09-28T04:59:19.036Z,8.20
2022-09-28T05:01:22.097Z,8.12
2022-09-28T05:03:23.726Z,8.09
2022-09-28T05:05:25.467Z,8.05
2022-09-28T05:07:26.901Z,7.89
2022-09-28T05:09:28.376Z,7.94
2022-09-28T05:11:29.701Z,7.98
2022-09-28T05:13:31.974Z,7.97
2022-09-28T05:15:34.321Z,7.98
2022-09-28T05:17:37.262Z,8.11
2022-09-28T05:19:38.730Z,7.94
2022-09-28T05:21:40.028Z,7.95
2022-09-28T05:23:46.131Z,8.10
2022-09-28T05:25:47.615Z,8.10
2022-09-28T05:27:48.988Z,7.94
2022-09-28T05:29:50.461Z,7.99
2022-09-28T05:31:51.766Z,8.07
2022-09-28T05:33:54.597Z,8.20
2022-09-28T05:36:00.929Z,8.14
2022-09-28T05:38:04.658Z,8.28
2022-09-28T05:40:07.292Z,8.27
2022-09-28T05:42:08.808Z,8.36
2022-09-28T05:44:10.264Z,8.56
2022-09-28T05:46:11.865Z,8.45
2022-09-28T05:48:13.442Z,8.40
2022-09-28T05:50:16.219Z,8.34
2022-09-28T05:52:17.924Z,8.40
2022-09-28T05:54:19.544Z,8.33
2022-09-28T05:56:21.180Z,8.40
2022-09-28T05:58:22.445Z,8.52
2022-09-28T06:00:23.952Z,8.37
2022-09-28T06:02:25.405Z,8.43
2022-09-28T06:04:26.977Z,8.63
2022-09-28T06:06:29.820Z,9.14
2022-09-28T06:08:31.942Z,8.87
2022-09-28T06:10:33.710Z,8.74
2022-09-28T06:12:35.170Z,8.65
2022-09-28T06:14:36.591Z,8.78
2022-09-28T06:16:41.696Z,8.73
2022-09-28T06:18:45.197Z,8.98
2022-09-28T06:20:46.694Z,8.94
2022-09-28T06:22:51.631Z,8.86
2022-09-28T06:24:53.317Z,8.96
2022-09-28T06:26:54.859Z,8.92
2022-09-28T06:28:56.318Z,8.87
2022-09-28T06:30:59.548Z,8.98
2022-09-28T06:33:02.064Z,8.94
2022-09-28T06:35:03.995Z,9.09
2022-09-28T06:37:05.454Z,9.17
2022-09-28T06:39:08.103Z,9.07
2022-09-28T06:41:10.751Z,9.17
2022-09-28T06:43:14.004Z,9.06
2022-09-28T06:45:15.479Z,9.10
2022-09-28T06:47:16.772Z,9.08
2022-09-28T06:49:19.641Z,8.97
2022-09-28T06:51:21.215Z,8.95
2022-09-28T06:53:22.511Z,9.02
2022-09-28T06:55:26.475Z,9.15
2022-09-28T06:57:28.059Z,9.13
2022-09-28T06:59:29.596Z,9.25
2022-09-28T07:01:31.067Z,9.28
2022-09-28T07:03:32.567Z,9.28
2022-09-28T07:05:36.080Z,9.08
2022-09-28T07:07:37.683Z,9.14
2022-09-28T07:09:43.748Z,9.19
2022-09-28T07:11:49.381Z,9.35
2022-09-28T07:13:51.612Z,9.32
2022-09-28T07:15:56.862Z,9.43
2022-09-28T07:18:02.614Z,9.58
2022-09-28T07:20:15.448Z,9.59
2022-09-28T07:22:26.505Z,9.82
2022-09-28T07:24:32.262Z,9.98
2022-09-28T07:26:33.620Z,9.97
2022-09-28T07:28:36.404Z,9.91
2022-09-28T07:30:38.220Z,9.87
2022-09-28T07:32:39.740Z,10.05
2022-09-28T07:34:41.050Z,10.20
2022-09-28T07:36:42.529Z,10.32
2022-09-28T07:38:43.844Z,10.36
2022-09-28T07:40:48.369Z,10.30
2022-09-28T07:42:50.502Z,10.41
2022-09-28T07:44:53.487Z,10.36
2022-09-28T07:46:54.954Z,10.64
2022-09-28T07:48:56.240Z,10.69
2022-09-28T07:50:57.735Z,10.86
2022-09-28T07:52:59.025Z,10.81
2022-09-28T07:55:06.026Z,10.62
2022-09-28T07:57:08.498Z,10.62
2022-09-28T07:59:10.198Z,10.74
2022-09-28T08:01:13.513Z,10.74
2022-09-28T08:03:15.687Z,10.92
2022-09-28T08:05:17.184Z,10.93
2022-09-28T08:07:21.665Z,10.81
2022-09-28T08:09:25.389Z,11.09
2022-09-28T08:11:26.878Z,11.00
2022-09-28T08:13:28.171Z,11.19
2022-09-28T08:15:31.989Z,11.38
2022-09-28T08:17:34.778Z,11.35
2022-09-28T08:19:36.240Z,11.41
2022-09-28T08:21:37.545Z,11.49
2022-09-28T08:23:38.986Z,11.29
2022-09-28T08:25:40.352Z,11.45
2022-09-28T08:27:41.819Z,11.44
2022-09-28T08:29:43.168Z,11.45
2022-09-28T08:31:47.476Z,11.46
2022-09-28T08:33:50.281Z,11.47
2022-09-28T08:35:55.870Z,11.70
2022-09-28T08:37:57.302Z,11.52
2022-09-28T08:39:58.620Z,11.61
2022-09-28T08:42:15.038Z,11.54
2022-09-28T08:44:18.314Z,11.53
2022-09-28T08:46:26.960Z,11.43
2022-09-28T08:48:33.081Z,11.41
2022-09-28T08:50:45.628Z,11.38
2022-09-28T08:52:51.346Z,11.51
2022-09-28T08:54:58.659Z,11.58
2022-09-28T08:57:03.542Z,11.37
2022-09-28T08:59:11.936Z,11.38
2022-09-28T09:01:17.784Z,11.49
2022-09-28T09:03:21.988Z,11.70
2022-09-28T09:05:39.414Z,12.07
2022-09-28T09:08:05.198Z,12.32
2022-09-28T09:10:19.717Z,12.30
2022-09-28T09:12:30.461Z,12.30
2022-09-28T09:14:52.070Z,12.49
2022-09-28T09:17:01.277Z,12.82
2022-09-28T09:19:13.902Z,12.92
2022-09-28T09:21:24.466Z,13.00
2022-09-28T09:23:36.443Z,12.98
2022-09-28T09:25:41.542Z,13.26
2022-09-28T09:28:03.539Z,13.38
2022-09-28T09:30:08.642Z,13.58
2022-09-28T09:32:25.800Z,13.40
2022-09-28T09:34:52.125Z,13.55
2022-09-28T09:37:06.260Z,13.37
2022-09-28T09:39:20.820Z,13.61
2022-09-28T09:41:34.320Z,13.78
2022-09-28T09:43:58.778Z,13.87
2022-09-28T09:46:10.353Z,13.75
2022-09-28T09:48:17.364Z,13.66
2022-09-28T09:50:24.715Z,13.58
2022-09-28T09:52:29.609Z,13.28
2022-09-28T09:54:37.778Z,13.13
2022-09-28T09:56:42.583Z,12.63
2022-09-28T09:58:48.852Z,12.74
2022-09-28T10:00:54.143Z,12.67
2022-09-28T10:02:57.619Z,12.75
2022-09-28T10:05:02.705Z,12.68
2022-09-28T10:07:06.748Z,12.57
2022-09-28T10:09:13.620Z,12.55
2022-09-28T10:11:20.163Z,12.34
2022-09-28T10:13:21.629Z,12.36
2022-09-28T10:15:25.496Z,12.49
2022-09-28T10:17:27.159Z,12.36
2022-09-28T10:19:31.633Z,12.34
2022-09-28T10:21:33.224Z,12.18
2022-09-28T10:23:37.712Z,12.26
2022-09-28T10:25:39.297Z,12.26
2022-09-28T10:27:44.532Z,12.21
2022-09-28T10:29:52.241Z,12.29
2022-09-28T10:31:53.952Z,12.22
2022-09-28T10:33:57.654Z,12.22
2022-09-28T10:36:01.590Z,12.26
2022-09-28T10:38:06.695Z,11.96
2022-09-28T10:40:27.033Z,12.02
2022-09-28T10:42:31.273Z,11.79
2022-09-28T10:44:42.649Z,11.70
2022-09-28T10:46:44.724Z,11.42
2022-09-28T10:48:50.565Z,11.35
2022-09-28T10:51:00.494Z,11.43
2022-09-28T10:53:20.177Z,11.36
2022-09-28T10:55:30.173Z,11.31
2022-09-28T10:57:35.419Z,11.25
2022-09-28T10:59:40.563Z,11.47
2022-09-28T11:01:42.303Z,11.40
2022-09-28T11:03:55.154Z,11.56
2022-09-28T11:05:59.492Z,11.40
2022-09-28T11:08:06.461Z,11.37
2022-09-28T11:10:21.599Z,11.36
2022-09-28T11:12:25.937Z,11.19
2022-09-28T11:14:32.690Z,11.08
2022-09-28T11:16:36.036Z,11.08
2022-09-28T11:18:37.647Z,11.04
2022-09-28T11:20:41.855Z,11.03
2022-09-28T11:22:44.268Z,11.27
2022-09-28T11:24:45.585Z,11.31
2022-09-28T11:26:50.034Z,11.35
2022-09-28T11:28:52.852Z,11.35
2022-09-28T11:30:54.823Z,11.34
2022-09-28T11:33:03.542Z,11.26
2022-09-28T11:35:05.972Z,11.38
2022-09-28T11:37:28.301Z,11.24
2022-09-28T11:39:40.815Z,11.44
2022-09-28T11:41:54.180Z,11.23
2022-09-28T11:44:12.433Z,11.27
2022-09-28T11:46:22.927Z,11.19
2022-09-28T11:48:33.312Z,11.02
2022-09-28T11:50:45.098Z,10.89
2022-09-28T11:52:52.887Z,11.02
2022-09-28T11:54:57.114Z,10.90
2022-09-28T11:57:01.300Z,10.82
2022-09-28T11:59:09.396Z,10.71
2022-09-28T12:01:21.497Z,10.61
2022-09-28T12:03:30.218Z,10.62
2022-09-28T12:05:36.781Z,10.65
2022-09-28T12:07:43.969Z,10.54
2022-09-28T12:09:49.562Z,10.52
2022-09-28T12:11:56.360Z,10.64
2022-09-28T12:14:01.321Z,10.70
2022-09-28T12:16:27.721Z,10.66
2022-09-28T12:18:38.579Z,10.36
2022-09-28T12:20:45.893Z,10.50
2022-09-28T12:23:02.119Z,10.49
2022-09-28T12:25:10.103Z,10.39
2022-09-28T12:27:16.394Z,10.23
2022-09-28T12:29:22.600Z,10.26
2022-09-28T12:31:29.655Z,10.15
2022-09-28T12:33:32.559Z,10.18
2022-09-28T12:35:48.317Z,10.24
2022-09-28T12:38:03.034Z,10.23
2022-09-28T12:40:31.689Z,10.21
2022-09-28T12:42:50.476Z,10.26
2022-09-28T12:45:11.177Z,10.26
2022-09-28T12:47:33.677Z,10.27
2022-09-28T12:52:33.093Z,10.39
2022-09-28T12:54:50.472Z,10.48
2022-09-28T12:57:02.299Z,10.35
2022-09-28T12:59:14.896Z,10.26
2022-09-28T13:01:36.951Z,10.28
2022-09-28T13:04:02.612Z,10.19
2022-09-28T13:06:20.242Z,10.18
2022-09-28T13:08:30.667Z,10.33
2022-09-28T13:10:40.349Z,10.59
2022-09-28T13:12:54.148Z,10.46
2022-09-28T13:15:27.339Z,10.64
2022-09-28T13:17:36.816Z,10.63
2022-09-28T13:19:45.879Z,10.79
2022-09-28T13:22:00.105Z,10.88
2022-09-28T13:24:20.612Z,10.65
2022-09-28T13:26:29.669Z,10.44
2022-09-28T13:28:32.339Z,10.51
2022-09-28T13:30:38.909Z,10.70
2022-09-28T13:32:41.966Z,10.91
2022-09-28T13:34:48.515Z,10.87
2022-09-28T13:37:21.004Z,10.78
2022-09-28T13:39:47.682Z,10.51
2022-09-28T13:41:49.210Z,10.67
2022-09-28T13:44:10.117Z,10.72
2022-09-28T13:46:21.537Z,10.75
2022-09-28T13:48:34.330Z,10.83
2022-09-28T13:50:48.205Z,10.99
2022-09-28T13:53:00.682Z,11.09
2022-09-28T13:55:30.851Z,11.16
2022-09-28T13:57:41.437Z,11.37
2022-09-28T13:59:59.149Z,11.26
2022-09-28T14:02:07.167Z,11.50
2022-09-28T14:04:16.213Z,11.61
2022-09-28T14:06:26.605Z,11.41
2022-09-28T14:08:33.214Z,11.22
2022-09-28T14:10:47.582Z,11.24
2022-09-28T14:12:49.890Z,11.17
2022-09-28T14:14:52.065Z,11.00
2022-09-28T14:17:22.473Z,10.95
2022-09-28T14:19:28.252Z,11.18
2022-09-28T14:21:54.720Z,11.39
2022-09-28T14:24:12.479Z,11.40
2022-09-28T14:26:48.142Z,11.40
2022-09-28T14:29:09.265Z,11.24
2022-09-28T14:31:20.897Z,11.14
2022-09-28T14:33:26.440Z,11.08
2022-09-28T14:35:31.780Z,11.04
2022-09-28T14:37:37.130Z,10.91
2022-09-28T14:39:44.906Z,10.89
2022-09-28T14:41:46.312Z,10.79
2022-09-28T14:44:05.109Z,10.81
2022-09-28T14:46:33.248Z,10.68
2022-09-28T14:48:46.881Z,10.81
2022-09-28T14:50:48.558Z,10.90
2022-09-28T14:52:52.767Z,10.98
2022-09-28T14:54:57.341Z,10.89
2022-09-28T14:57:11.745Z,11.00
2022-09-28T14:59:18.266Z,10.94
2022-09-28T15:01:22.017Z,10.86
2022-09-28T15:03:24.691Z,10.89
2022-09-28T15:05:29.872Z,10.80
2022-09-28T15:07:44.368Z,10.79
2022-09-28T15:09:48.238Z,10.77
2022-09-28T15:11:51.040Z,10.62
2022-09-28T15:14:06.042Z,10.59
2022-09-28T15:16:11.035Z,10.54
2022-09-28T15:18:36.508Z,10.47
2022-09-28T15:20:40.667Z,10.55
2022-09-28T15:22:45.321Z,10.62
2022-09-28T15:24:58.687Z,10.65
2022-09-28T15:27:14.957Z,10.48
2022-09-28T15:29:18.379Z,10.59
2022-09-28T15:31:21.901Z,10.50
2022-09-28T15:33:24.862Z,10.37
2022-09-28T15:35:27.651Z,10.49
2022-09-28T15:37:37.327Z,10.45
2022-09-28T15:39:41.462Z,10.57
2022-09-28T15:41:45.116Z,10.72
2022-09-28T15:44:05.246Z,10.73
2022-09-28T15:46:12.364Z,10.73
2022-09-28T15:48:26.108Z,10.79
2022-09-28T15:50:29.493Z,10.85
2022-09-28T15:52:36.183Z,10.89
2022-09-28T15:54:43.684Z,11.05
2022-09-28T15:56:53.170Z,11.13
2022-09-28T15:59:24.248Z,11.04
2022-09-28T16:01:34.764Z,10.96
2022-09-28T16:03:36.510Z,10.96
2022-09-28T16:05:42.271Z,10.83
2022-09-28T16:07:56.044Z,10.86
2022-09-28T16:10:05.196Z,10.77
2022-09-28T16:12:09.949Z,10.74
2022-09-28T16:14:19.160Z,10.61
2022-09-28T16:16:26.100Z,10.53
2022-09-28T16:18:29.155Z,10.50
2022-09-28T16:20:33.245Z,10.44
2022-09-28T16:22:34.796Z,10.49
2022-09-28T16:24:38.747Z,10.58
2022-09-28T16:26:40.385Z,10.55
2022-09-28T16:28:54.794Z,10.40
2022-09-28T16:31:02.150Z,10.26
2022-09-28T16:33:05.523Z,10.22
2022-09-28T16:35:19.967Z,10.22
2022-09-28T16:37:30.691Z,10.17
2022-09-28T16:39:32.109Z,10.27
2022-09-28T16:41:33.403Z,10.07
2022-09-28T16:43:35.111Z,10.01
2022-09-28T16:45:37.839Z,10.16
2022-09-28T16:47:40.677Z,10.13
2022-09-28T16:49:42.178Z,10.13
2022-09-28T16:51:43.594Z,10.13
2022-09-28T16:53:45.907Z,9.92
2022-09-28T16:55:49.020Z,9.99
2022-09-28T16:57:51.135Z,9.81
2022-09-28T16:59:52.892Z,9.82
2022-09-28T17:01:54.423Z,9.81
2022-09-28T17:03:57.333Z,9.86
2022-09-28T17:05:58.816Z,9.88
2022-09-28T17:08:01.349Z,9.92
2022-09-28T17:10:03.102Z,9.96
2022-09-28T17:12:12.251Z,9.96
2022-09-28T17:14:13.727Z,9.82
2022-09-28T17:16:16.484Z,9.87
2022-09-28T17:18:18.907Z,9.88
2022-09-28T17:20:25.126Z,9.82
2022-09-28T17:22:26.601Z,9.76
2022-09-28T17:24:27.918Z,9.85
2022-09-28T17:26:29.924Z,9.94
2022-09-28T17:28:32.880Z,9.86
2022-09-28T17:30:34.391Z,9.76
2022-09-28T17:32:35.877Z,9.70
2022-09-28T17:34:37.172Z,9.66
2022-09-28T17:36:41.270Z,9.72
2022-09-28T17:38:43.670Z,9.68
2022-09-28T17:40:45.275Z,9.59
2022-09-28T17:42:47.431Z,9.54
2022-09-28T17:44:48.856Z,9.56
2022-09-28T17:46:50.158Z,9.60
2022-09-28T17:48:51.945Z,9.53
2022-09-28T17:50:53.441Z,9.60
2022-09-28T17:52:56.654Z,9.55
2022-09-28T17:54:58.844Z,9.57
2022-09-28T17:57:01.513Z,9.70
2022-09-28T17:59:05.621Z,9.75
2022-09-28T18:01:10.521Z,9.86
2022-09-28T18:03:19.374Z,9.80
2022-09-28T18:05:35.213Z,9.81
2022-09-28T18:07:37.522Z,9.78
2022-09-28T18:09:48.247Z,9.83
2022-09-28T18:11:51.894Z,9.78
2022-09-28T18:13:53.609Z,9.80
2022-09-28T18:15:58.719Z,9.78
2022-09-28T18:18:01.326Z,9.76
2022-09-28T18:20:03.301Z,9.89
2022-09-28T18:22:04.732Z,9.87
2022-09-28T18:24:06.040Z,9.76
2022-09-28T18:26:13.131Z,9.78
2022-09-28T18:28:14.855Z,9.73
2022-09-28T18:30:16.445Z,9.61
2022-09-28T18:32:29.172Z,9.66
2022-09-28T18:34:30.756Z,9.70
2022-09-28T18:36:39.561Z,9.67
2022-09-28T18:39:06.568Z,9.63
2022-09-28T18:41:13.574Z,9.58
2022-09-28T18:43:22.709Z,9.56
2022-09-28T18:45:30.179Z,9.60
2022-09-28T18:47:36.138Z,9.51
2022-09-28T18:49:42.511Z,9.45
2022-09-28T18:51:48.565Z,9.47
2022-09-28T18:53:55.410Z,9.48
2022-09-28T18:56:06.097Z,9.36
2022-09-28T18:58:13.154Z,9.32
2022-09-28T19:00:16.282Z,9.34
2022-09-28T19:02:17.898Z,9.30
2022-09-28T19:04:19.560Z,9.28
2022-09-28T19:06:21.302Z,9.26
2022-09-28T19:08:27.437Z,9.28
2022-09-28T19:10:29.219Z,9.27
2022-09-28T19:12:30.683Z,9.19
2022-09-28T19:14:31.964Z,9.14
2022-09-28T19:16:34.889Z,9.14
2022-09-28T19:18:36.785Z,9.13
2022-09-28T19:20:38.233Z,9.18
2022-09-28T19:22:39.538Z,9.14
2022-09-28T19:24:41.223Z,9.19
2022-09-28T19:26:43.360Z,9.16
2022-09-28T19:28:44.854Z,9.15
2022-09-28T19:30:54.695Z,9.14
2022-09-28T19:32:57.567Z,9.09
2022-09-28T19:34:59.054Z,9.02
2022-09-28T19:37:00.334Z,9.01
2022-09-28T19:39:01.877Z,9.00
2022-09-28T19:41:08.424Z,8.99
2022-09-28T19:43:09.866Z,8.96
2022-09-28T19:45:11.158Z,8.99
2022-09-28T19:47:12.617Z,8.93
2022-09-28T19:49:16.261Z,8.95
2022-09-28T19:51:17.704Z,8.91
2022-09-28T19:53:19.169Z,8.84
2022-09-28T19:55:20.477Z,8.84
2022-09-28T19:57:23.102Z,8.87
2022-09-28T19:59:24.660Z,8.74
2022-09-28T20:01:26.427Z,8.74
2022-09-28T20:03:27.862Z,8.78
2022-09-28T20:05:30.537Z,8.75
2022-09-28T20:07:31.976Z,8.76
2022-09-28T20:09:33.408Z,8.77
2022-09-28T20:11:34.768Z,8.75
2022-09-28T20:13:37.058Z,8.71
2022-09-28T20:15:38.516Z,8.59
2022-09-28T20:17:39.993Z,8.53
2022-09-28T20:19:41.453Z,8.57
2022-09-28T20:21:44.098Z,8.52
2022-09-28T20:23:46.739Z,8.59
2022-09-28T20:25:52.176Z,8.66
2022-09-28T20:27:54.313Z,8.67
2022-09-28T20:29:55.820Z,8.61
2022-09-28T20:31:57.189Z,8.63
2022-09-28T20:33:58.640Z,8.44
2022-09-28T20:36:04.594Z,8.40
2022-09-28T20:38:07.436Z,8.34
2022-09-28T20:40:09.988Z,8.30
2022-09-28T20:42:11.586Z,8.33
2022-09-28T20:44:13.110Z,8.44
2022-09-28T20:46:14.569Z,8.35
2022-09-28T20:48:16.074Z,8.33
2022-09-28T20:50:17.353Z,8.31
2022-09-28T20:52:18.921Z,8.30
2022-09-28T20:54:21.778Z,8.25
2022-09-28T20:56:25.189Z,8.26
2022-09-28T20:58:26.683Z,8.17
2022-09-28T21:00:28.060Z,8.13
2022-09-28T21:02:29.616Z,8.16
2022-09-28T21:04:31.057Z,8.09
2022-09-28T21:06:34.434Z,8.04
2022-09-28T21:08:35.874Z,8.07
2022-09-28T21:10:43.225Z,8.04
2022-09-28T21:12:46.229Z,8.05
2022-09-28T21:14:47.665Z,8.07
2022-09-28T21:16:49.401Z,8.09
2022-09-28T21:18:50.902Z,8.06
2022-09-28T21:20:52.185Z,8.05
2022-09-28T21:22:53.632Z,8.07
2022-09-28T21:24:55.108Z,8.05
2022-09-28T21:26:57.921Z,8.05
2022-09-28T21:29:00.803Z,8.12
2022-09-28T21:31:04.735Z,8.13
2022-09-28T21:33:06.232Z,8.13
2022-09-28T21:35:10.732Z,8.12
2022-09-28T21:37:12.504Z,8.27
2022-09-28T21:39:14.128Z,8.22
2022-09-28T21:41:15.701Z,8.24
2022-09-28T21:43:18.784Z,8.23
2022-09-28T21:45:20.268Z,8.32
2022-09-28T21:47:21.687Z,8.22
2022-09-28T21:49:23.217Z,8.22
2022-09-28T21:51:24.605Z,8.14
2022-09-28T21:53:27.700Z,8.21
2022-09-28T21:55:29.351Z,8.22
2022-09-28T21:57:30.788Z,8.27
2022-09-28T21:59:33.603Z,8.28
2022-09-28T22:01:35.235Z,8.34
2022-09-28T22:03:37.075Z,8.40
2022-09-28T22:05:38.527Z,8.35
2022-09-28T22:07:40.275Z,8.42
2022-09-28T22:09:41.772Z,8.43
2022-09-28T22:11:43.066Z,8.42
2022-09-28T22:13:46.073Z,8.53
2022-09-28T22:15:53.601Z,8.41
2022-09-28T22:17:55.071Z,8.35
2022-09-28T22:19:56.824Z,8.37
2022-09-28T22:21:58.428Z,8.25
2022-09-28T22:24:01.360Z,8.25
2022-09-28T22:26:06.410Z,8.15
2022-09-28T22:28:08.428Z,8.10
2022-09-28T22:30:10.679Z,8.17
2022-09-28T22:32:13.693Z,8.05
2022-09-28T22:34:15.228Z,8.11
2022-09-28T22:36:17.014Z,8.06
2022-09-28T22:38:18.666Z,7.96
2022-09-28T22:40:20.152Z,8.01
2022-09-28T22:42:21.521Z,8.00
2022-09-28T22:44:23.232Z,7.96
2022-09-28T22:46:26.663Z,7.96
2022-09-28T22:48:29.941Z,7.97
2022-09-28T22:50:31.419Z,7.93
2022-09-28T22:52:32.904Z,7.87
2022-09-28T22:54:34.202Z,7.94
2022-09-28T22:56:35.661Z,7.92
2022-09-28T22:58:38.168Z,7.95
2022-09-28T23:00:39.600Z,7.94
2022-09-28T23:02:41.120Z,7.88
2022-09-28T23:04:43.971Z,7.90
2022-09-28T23:06:45.439Z,7.83
2022-09-28T23:08:47.659Z,7.76
2022-09-28T23:10:49.329Z,7.74
2022-09-28T23:12:53.048Z,7.71
2022-09-28T23:14:54.534Z,7.65
2022-09-28T23:16:55.821Z,7.62
2022-09-28T23:18:57.740Z,7.60
2022-09-28T23:21:02.143Z,7.55
2022-09-28T23:23:03.608Z,7.47
2022-09-28T23:25:05.975Z,7.49
2022-09-28T23:27:07.507Z,7.49
2022-09-28T23:29:10.465Z,7.45
2022-09-28T23:31:14.724Z,7.44
2022-09-28T23:33:17.461Z,7.38
2022-09-28T23:35:19.264Z,7.33
2022-09-28T23:37:25.129Z,7.29
2022-09-28T23:39:28.356Z,7.31
2022-09-28T23:41:29.961Z,7.27
2022-09-28T23:43:31.609Z,7.27
2022-09-28T23:45:33.577Z,7.26
2022-09-28T23:47:35.174Z,7.35
2022-09-28T23:49:36.599Z,7.28
2022-09-28T23:51:38.395Z,7.23
2022-09-28T23:53:41.337Z,7.17
2022-09-28T23:55:43.523Z,7.21
2022-09-28T23:57:46.226Z,7.27
2022-09-28T23:59:47.728Z,7.24
